Time,TemperatureF,DewpointF,PressureIn,WindDirection,WindDirectionDegrees,WindSpeedMPH,WindSpeedGustMPH,Humidity,HourlyPrecipIn,Conditions,Clouds,dailyrainin,SoftwareType,DateUTC
2013-02-06 00:02:00,26.4,17.9,29.83,South,191,1.0,3.0,70,0.00,,,0.00,Wunderground v.1.15,2013-02-06 05:02:00,
2013-02-06 00:08:00,26.4,17.9,29.83,South,191,1.0,3.0,70,0.00,,,0.00,Wunderground v.1.15,2013-02-06 05:08:00,
2013-02-06 00:17:00,26.6,18.8,29.83,South,191,1.0,2.0,72,0.00,,,0.00,Wunderground v.1.15,2013-02-06 05:17:00,
2013-02-06 00:23:00,26.6,18.8,29.83,South,191,1.0,1.0,72,0.00,,,0.00,Wunderground v.1.15,2013-02-06 05:23:00,
2013-02-06 00:27:00,26.6,19.1,29.83,SW,220,1.0,1.0,73,0.00,,,0.00,Wunderground v.1.15,2013-02-06 05:27:00,
2013-02-06 00:42:00,26.6,19.4,29.84,WSW,253,1.0,3.0,74,0.00,,,0.00,Wunderground v.1.15,2013-02-06 05:42:00,
2013-02-06 00:57:00,26.4,20.2,29.84,West,268,1.0,1.0,77,0.00,,,0.00,Wunderground v.1.15,2013-02-06 05:57:00,
2013-02-06 01:08:00,26.4,20.5,29.83,West,268,1.0,1.0,78,0.00,,,0.00,Wunderground v.1.15,2013-02-06 06:08:00,
2013-02-06 01:17:00,26.4,20.8,29.83,West,263,1.0,2.0,79,0.00,,,0.00,Wunderground v.1.15,2013-02-06 06:17:00,
2013-02-06 01:23:00,26.4,20.8,29.83,West,263,1.0,1.0,79,0.00,,,0.00,Wunderground v.1.15,2013-02-06 06:23:00,
2013-02-06 01:32:00,26.4,20.8,29.84,WSW,253,1.0,1.0,79,0.00,,,0.00,Wunderground v.1.15,2013-02-06 06:32:00,
2013-02-06 01:38:00,26.4,20.8,29.84,WSW,253,1.0,1.0,79,0.00,,,0.00,Wunderground v.1.15,2013-02-06 06:38:00,
2013-02-06 01:47:00,26.6,21.0,29.84,West,272,1.0,1.0,79,0.00,,,0.00,Wunderground v.1.15,2013-02-06 06:47:00,
2013-02-06 01:53:00,26.6,21.0,29.84,West,270,1.0,1.0,79,0.00,,,0.00,Wunderground v.1.15,2013-02-06 06:53:00,
2013-02-06 02:02:00,26.7,21.1,29.85,West,263,1.0,1.0,79,0.00,,,0.00,Wunderground v.1.15,2013-02-06 07:02:00,
2013-02-06 02:07:00,26.7,21.1,29.85,West,263,1.0,1.0,79,0.00,,,0.00,Wunderground v.1.15,2013-02-06 07:07:00,
2013-02-06 02:12:00,26.9,21.0,29.85,West,263,0.0,1.0,78,0.00,,,0.00,Wunderground v.1.15,2013-02-06 07:12:00,
2013-02-06 02:22:00,27.0,21.1,29.85,WSW,250,1.0,1.0,78,0.00,,,0.00,Wunderground v.1.15,2013-02-06 07:22:00,
2013-02-06 02:32:00,27.0,21.1,29.85,WSW,250,0.0,2.0,78,0.00,,,0.00,Wunderground v.1.15,2013-02-06 07:32:00,
2013-02-06 02:37:00,27.2,21.2,29.85,WNW,289,1.0,2.0,78,0.00,,,0.00,Wunderground v.1.15,2013-02-06 07:37:00,
2013-02-06 02:47:00,27.3,21.0,29.85,WSW,250,1.0,5.0,77,0.00,,,0.00,Wunderground v.1.15,2013-02-06 07:47:00,
2013-02-06 02:52:00,27.3,21.0,29.85,West,274,1.0,1.0,77,0.00,,,0.00,Wunderground v.1.15,2013-02-06 07:52:00,
2013-02-06 03:02:00,27.5,21.2,29.86,West,267,1.0,1.0,77,0.00,,,0.00,Wunderground v.1.15,2013-02-06 08:02:00,
2013-02-06 03:07:00,27.5,21.2,29.86,West,267,0.0,2.0,77,0.00,,,0.00,Wunderground v.1.15,2013-02-06 08:07:00,
2013-02-06 03:17:00,27.5,21.2,29.86,WSW,257,1.0,1.0,77,0.00,,,0.00,Wunderground v.1.15,2013-02-06 08:17:00,
2013-02-06 03:27:00,27.6,21.3,29.86,SW,216,2.0,2.0,77,0.00,,,0.00,Wunderground v.1.15,2013-02-06 08:27:00,
2013-02-06 03:42:00,27.8,21.5,29.86,SW,229,1.0,1.0,77,0.00,,,0.00,Wunderground v.1.15,2013-02-06 08:42:00,
2013-02-06 03:53:00,27.8,21.2,29.86,SW,229,1.0,1.0,76,0.00,,,0.00,Wunderground v.1.15,2013-02-06 08:53:00,
2013-02-06 04:02:00,27.9,21.3,29.86,SW,227,1.0,2.0,76,0.00,,,0.00,Wunderground v.1.15,2013-02-06 09:02:00,
2013-02-06 04:07:00,27.9,21.3,29.86,SW,227,1.0,2.0,76,0.00,,,0.00,Wunderground v.1.15,2013-02-06 09:07:00,
2013-02-06 04:17:00,27.9,21.3,29.87,SW,227,0.0,1.0,76,0.00,,,0.00,Wunderground v.1.15,2013-02-06 09:17:00,
2013-02-06 04:22:00,27.9,21.3,29.87,SW,227,0.0,0.0,76,0.00,,,0.00,Wunderground v.1.15,2013-02-06 09:22:00,
2013-02-06 04:32:00,27.9,21.3,29.88,WNW,282,1.0,1.0,76,0.00,,,0.00,Wunderground v.1.15,2013-02-06 09:32:00,
2013-02-06 04:37:00,28.1,21.5,29.88,West,272,2.0,2.0,76,0.00,,,0.00,Wunderground v.1.15,2013-02-06 09:37:00,
2013-02-06 04:47:00,28.1,21.5,29.89,NW,309,1.0,3.0,76,0.00,,,0.00,Wunderground v.1.15,2013-02-06 09:47:00,
2013-02-06 04:52:00,28.2,21.3,29.89,WNW,301,2.0,2.0,75,0.00,,,0.00,Wunderground v.1.15,2013-02-06 09:52:00,
2013-02-06 05:02:00,28.2,21.3,29.90,NW,311,1.0,2.0,75,0.00,,,0.00,Wunderground v.1.15,2013-02-06 10:02:00,
2013-02-06 05:12:00,28.2,21.6,29.90,West,260,2.0,2.0,76,0.00,,,0.00,Wunderground v.1.15,2013-02-06 10:12:00,
2013-02-06 05:22:00,28.2,21.3,29.91,West,265,2.0,4.0,75,0.00,,,0.00,Wunderground v.1.15,2013-02-06 10:22:00,
2013-02-06 05:32:00,28.2,21.3,29.91,NW,308,3.0,5.0,75,0.00,,,0.00,Wunderground v.1.15,2013-02-06 10:32:00,
2013-02-06 05:37:00,28.2,21.3,29.91,West,270,3.0,5.0,75,0.00,,,0.00,Wunderground v.1.15,2013-02-06 10:37:00,
2013-02-06 05:47:00,28.2,21.0,29.92,West,268,3.0,3.0,74,0.00,,,0.00,Wunderground v.1.15,2013-02-06 10:47:00,
2013-02-06 05:57:00,28.2,20.7,29.92,West,260,3.0,3.0,73,0.00,,,0.00,Wunderground v.1.15,2013-02-06 10:57:00,
2013-02-06 06:07:00,28.2,20.3,29.93,West,261,3.0,3.0,72,0.00,,,0.00,Wunderground v.1.15,2013-02-06 11:07:00,
2013-02-06 06:17:00,28.2,19.7,29.94,West,268,2.0,6.0,70,0.00,,,0.00,Wunderground v.1.15,2013-02-06 11:17:00,
2013-02-06 06:22:00,28.2,19.3,29.94,SW,234,3.0,3.0,69,0.00,,,0.00,Wunderground v.1.15,2013-02-06 11:22:00,
2013-02-06 06:32:00,28.2,19.3,29.94,WNW,296,2.0,3.0,69,0.00,,,0.00,Wunderground v.1.15,2013-02-06 11:32:00,
2013-02-06 06:37:00,28.1,19.9,29.94,West,264,2.0,3.0,71,0.00,,,0.00,Wunderground v.1.15,2013-02-06 11:37:00,
2013-02-06 06:47:00,27.8,20.6,29.96,NW,308,2.0,2.0,74,0.00,,,0.00,Wunderground v.1.15,2013-02-06 11:47:00,
2013-02-06 06:53:00,27.5,20.9,29.96,WNW,294,2.0,4.0,76,0.00,,,0.00,Wunderground v.1.15,2013-02-06 11:53:00,
2013-02-06 07:02:00,27.0,21.4,29.97,NW,318,3.0,3.0,79,0.00,,,0.00,Wunderground v.1.15,2013-02-06 12:02:00,
2013-02-06 07:07:00,26.9,21.6,29.97,NW,318,2.0,3.0,80,0.00,,,0.00,Wunderground v.1.15,2013-02-06 12:07:00,
2013-02-06 07:17:00,26.6,21.6,29.99,NW,322,1.0,2.0,81,0.00,,,0.00,Wunderground v.1.15,2013-02-06 12:17:00,
2013-02-06 07:22:00,26.3,20.7,29.99,WSW,246,2.0,2.0,79,0.00,,,0.00,Wunderground v.1.15,2013-02-06 12:22:00,
2013-02-06 07:32:00,26.1,18.9,30.00,NW,304,3.0,3.0,74,0.00,,,0.00,Wunderground v.1.15,2013-02-06 12:32:00,
2013-02-06 07:42:00,26.1,18.3,30.00,West,275,3.0,3.0,72,0.00,,,0.00,Wunderground v.1.15,2013-02-06 12:42:00,
2013-02-06 07:52:00,26.1,16.6,30.02,NW,308,4.0,4.0,67,0.00,,,0.00,Wunderground v.1.15,2013-02-06 12:52:00,
2013-02-06 08:02:00,26.1,14.8,30.03,West,275,4.0,4.0,62,0.00,,,0.00,Wunderground v.1.15,2013-02-06 13:02:00,
2013-02-06 08:07:00,26.1,14.1,30.03,WNW,292,5.0,12.0,60,0.00,,,0.00,Wunderground v.1.15,2013-02-06 13:07:00,
2013-02-06 08:17:00,26.3,13.5,30.05,West,275,5.0,6.0,58,0.00,,,0.00,Wunderground v.1.15,2013-02-06 13:17:00,
2013-02-06 08:22:00,26.3,13.1,30.05,NW,309,4.0,4.0,57,0.00,,,0.00,Wunderground v.1.15,2013-02-06 13:22:00,
2013-02-06 08:32:00,26.3,12.7,30.06,NNW,343,4.0,7.0,56,0.00,,,0.00,Wunderground v.1.15,2013-02-06 13:32:00,
2013-02-06 08:37:00,26.3,12.7,30.06,NW,312,4.0,7.0,56,0.00,,,0.00,Wunderground v.1.15,2013-02-06 13:37:00,
2013-02-06 08:47:00,26.1,13.3,30.07,West,267,5.0,6.0,58,0.00,,,0.00,Wunderground v.1.15,2013-02-06 13:47:00,
2013-02-06 08:53:00,26.3,13.9,30.07,NW,305,5.0,5.0,59,0.00,,,0.00,Wunderground v.1.15,2013-02-06 13:53:00,
2013-02-06 09:02:00,26.4,14.0,30.08,WNW,285,3.0,6.0,59,0.00,,,0.00,Wunderground v.1.15,2013-02-06 14:02:00,
2013-02-06 09:08:00,26.4,13.6,30.08,West,272,4.0,7.0,58,0.00,,,0.00,Wunderground v.1.15,2013-02-06 14:08:00,
2013-02-06 09:17:00,26.1,12.9,30.08,WNW,301,6.0,6.0,57,0.00,,,0.00,Wunderground v.1.15,2013-02-06 14:17:00,
2013-02-06 09:27:00,26.0,12.8,30.08,WNW,301,4.0,7.0,57,0.00,,,0.00,Wunderground v.1.15,2013-02-06 14:27:00,
2013-02-06 09:32:00,26.0,13.2,30.10,NW,316,5.0,7.0,58,0.00,,,0.00,Wunderground v.1.15,2013-02-06 14:32:00,
2013-02-06 09:38:00,25.7,14.8,30.10,NNW,335,5.0,5.0,63,0.00,,,0.00,Wunderground v.1.15,2013-02-06 14:38:00,
2013-02-06 09:47:00,25.0,15.6,30.11,WNW,288,5.0,5.0,67,0.00,,,0.00,Wunderground v.1.15,2013-02-06 14:47:00,
2013-02-06 09:57:00,24.1,15.4,30.11,WNW,298,6.0,6.0,69,0.00,,,0.00,Wunderground v.1.15,2013-02-06 14:57:00,
2013-02-06 10:07:00,23.9,15.5,30.12,NW,313,4.0,5.0,70,0.00,,,0.00,Wunderground v.1.15,2013-02-06 15:07:00,
2013-02-06 10:12:00,23.8,15.4,30.12,WNW,285,4.0,7.0,70,0.00,,,0.00,Wunderground v.1.15,2013-02-06 15:12:00,
2013-02-06 10:27:00,24.1,14.7,30.13,West,281,5.0,5.0,67,0.00,,,0.00,Wunderground v.1.15,2013-02-06 15:27:00,
2013-02-06 10:32:00,24.2,14.1,30.15,NNW,339,5.0,5.0,65,0.00,,,0.00,Wunderground v.1.15,2013-02-06 15:32:00,
2013-02-06 10:38:00,24.1,14.0,30.15,WNW,294,5.0,8.0,65,0.00,,,0.00,Wunderground v.1.15,2013-02-06 15:38:00,
2013-02-06 10:47:00,24.2,13.8,30.15,NW,305,4.0,8.0,64,0.00,,,0.00,Wunderground v.1.15,2013-02-06 15:47:00,
2013-02-06 10:53:00,24.4,14.0,30.15,NW,320,3.0,6.0,64,0.00,,,0.00,Wunderground v.1.15,2013-02-06 15:53:00,
2013-02-06 11:02:00,23.9,13.1,30.16,WSW,248,4.0,4.0,63,0.00,,,0.00,Wunderground v.1.15,2013-02-06 16:02:00,
2013-02-06 11:07:00,23.6,12.8,30.16,NW,313,4.0,4.0,63,0.00,,,0.00,Wunderground v.1.15,2013-02-06 16:07:00,
2013-02-06 11:17:00,23.9,13.1,30.16,WNW,298,4.0,5.0,63,0.00,,,0.00,Wunderground v.1.15,2013-02-06 16:17:00,
2013-02-06 11:22:00,23.6,12.5,30.16,NW,304,5.0,5.0,62,0.00,,,0.00,Wunderground v.1.15,2013-02-06 16:22:00,
2013-02-06 11:32:00,23.5,12.0,30.17,WNW,288,4.0,4.0,61,0.00,,,0.00,Wunderground v.1.15,2013-02-06 16:32:00,
2013-02-06 11:38:00,23.6,11.4,30.17,West,267,4.0,8.0,59,0.00,,,0.00,Wunderground v.1.15,2013-02-06 16:38:00,
2013-02-06 11:47:00,23.5,10.9,30.18,WNW,301,4.0,8.0,58,0.00,,,0.00,Wunderground v.1.15,2013-02-06 16:47:00,
2013-02-06 11:53:00,23.2,9.8,30.18,NW,313,4.0,4.0,56,0.00,,,0.00,Wunderground v.1.15,2013-02-06 16:53:00,
2013-02-06 12:02:00,22.9,9.1,30.18,NW,316,4.0,5.0,55,0.00,,,0.00,Wunderground v.1.15,2013-02-06 17:02:00,
2013-02-06 12:07:00,22.9,8.3,30.18,NW,305,5.0,8.0,53,0.00,,,0.00,Wunderground v.1.15,2013-02-06 17:07:00,
2013-02-06 12:17:00,23.5,8.0,30.19,WNW,296,4.0,6.0,51,0.00,,,0.00,Wunderground v.1.15,2013-02-06 17:17:00,
2013-02-06 12:23:00,23.8,7.4,30.19,North,0,4.0,7.0,49,0.00,,,0.00,Wunderground v.1.15,2013-02-06 17:23:00,
2013-02-06 12:32:00,23.8,6.5,30.19,North,8,4.0,7.0,47,0.00,,,0.00,Wunderground v.1.15,2013-02-06 17:32:00,
2013-02-06 12:37:00,23.8,6.5,30.19,North,359,3.0,3.0,47,0.00,,,0.00,Wunderground v.1.15,2013-02-06 17:37:00,
2013-02-06 12:47:00,23.6,6.3,30.20,West,261,3.0,3.0,47,0.00,,,0.00,Wunderground v.1.15,2013-02-06 17:47:00,
2013-02-06 12:53:00,23.5,4.8,30.20,NW,322,4.0,5.0,44,0.00,,,0.00,Wunderground v.1.15,2013-02-06 17:53:00,
2013-02-06 13:02:00,23.3,5.5,30.20,North,353,4.0,6.0,46,0.00,,,0.00,Wunderground v.1.15,2013-02-06 18:02:00,
2013-02-06 13:12:00,23.2,5.9,30.20,NW,309,4.0,4.0,47,0.00,,,0.00,Wunderground v.1.15,2013-02-06 18:12:00,
2013-02-06 13:17:00,23.3,6.0,30.21,WNW,294,4.0,4.0,47,0.00,,,0.00,Wunderground v.1.15,2013-02-06 18:17:00,
2013-02-06 13:22:00,23.2,5.4,30.21,NW,319,4.0,4.0,46,0.00,,,0.00,Wunderground v.1.15,2013-02-06 18:22:00,
2013-02-06 13:32:00,23.6,6.3,30.21,NNW,340,4.0,7.0,47,0.00,,,0.00,Wunderground v.1.15,2013-02-06 18:32:00,
2013-02-06 13:37:00,23.6,6.3,30.21,North,353,4.0,7.0,47,0.00,,,0.00,Wunderground v.1.15,2013-02-06 18:37:00,
2013-02-06 13:47:00,23.5,6.7,30.21,NNW,342,4.0,7.0,48,0.00,,,0.00,Wunderground v.1.15,2013-02-06 18:47:00,
2013-02-06 13:52:00,23.2,6.4,30.21,NNW,347,5.0,5.0,48,0.00,,,0.00,Wunderground v.1.15,2013-02-06 18:52:00,
2013-02-06 14:02:00,23.6,6.8,30.22,NNW,328,3.0,3.0,48,0.00,,,0.00,Wunderground v.1.15,2013-02-06 19:02:00,
2013-02-06 14:07:00,23.9,6.6,30.22,NNW,342,2.0,5.0,47,0.00,,,0.00,Wunderground v.1.15,2013-02-06 19:07:00,
2013-02-06 14:17:00,23.6,6.8,30.22,NW,316,4.0,5.0,48,0.00,,,0.00,Wunderground v.1.15,2013-02-06 19:17:00,
2013-02-06 14:27:00,23.6,6.8,30.22,North,352,4.0,7.0,48,0.00,,,0.00,Wunderground v.1.15,2013-02-06 19:27:00,
2013-02-06 14:37:00,23.5,6.2,30.22,NNW,344,3.0,5.0,47,0.00,,,0.00,Wunderground v.1.15,2013-02-06 19:37:00,
2013-02-06 14:47:00,23.5,7.1,30.24,NW,304,3.0,3.0,49,0.00,,,0.00,Wunderground v.1.15,2013-02-06 19:47:00,
2013-02-06 14:52:00,23.3,6.5,30.24,WNW,299,3.0,4.0,48,0.00,,,0.00,Wunderground v.1.15,2013-02-06 19:52:00,
2013-02-06 15:02:00,23.0,6.7,30.24,WNW,291,3.0,4.0,49,0.00,,,0.00,Wunderground v.1.15,2013-02-06 20:02:00,
2013-02-06 15:07:00,23.0,6.7,30.24,North,0,3.0,7.0,49,0.00,,,0.00,Wunderground v.1.15,2013-02-06 20:07:00,
2013-02-06 15:17:00,23.3,6.9,30.24,NNW,339,3.0,4.0,49,0.00,,,0.00,Wunderground v.1.15,2013-02-06 20:17:00,
2013-02-06 15:22:00,23.2,6.8,30.24,NNW,343,3.0,5.0,49,0.00,,,0.00,Wunderground v.1.15,2013-02-06 20:22:00,
2013-02-06 15:32:00,23.2,7.7,30.25,North,359,3.0,4.0,51,0.00,,,0.00,Wunderground v.1.15,2013-02-06 20:32:00,
2013-02-06 15:37:00,23.3,7.4,30.25,NNW,328,2.0,4.0,50,0.00,,,0.00,Wunderground v.1.15,2013-02-06 20:37:00,
2013-02-06 15:47:00,23.3,7.4,30.25,North,359,2.0,2.0,50,0.00,,,0.00,Wunderground v.1.15,2013-02-06 20:47:00,
2013-02-06 15:52:00,23.3,6.9,30.25,NW,306,2.0,2.0,49,0.00,,,0.00,Wunderground v.1.15,2013-02-06 20:52:00,
2013-02-06 16:02:00,23.0,7.1,30.26,West,260,3.0,3.0,50,0.00,,,0.00,Wunderground v.1.15,2013-02-06 21:02:00,
2013-02-06 16:07:00,23.0,7.5,30.26,West,277,2.0,3.0,51,0.00,,,0.00,Wunderground v.1.15,2013-02-06 21:07:00,
2013-02-06 16:17:00,22.9,7.4,30.26,NNW,329,1.0,2.0,51,0.00,,,0.00,Wunderground v.1.15,2013-02-06 21:17:00,
2013-02-06 16:22:00,22.7,7.3,30.26,NNE,23,2.0,2.0,51,0.00,,,0.00,Wunderground v.1.15,2013-02-06 21:22:00,
2013-02-06 16:32:00,22.4,7.0,30.26,West,270,2.0,2.0,51,0.00,,,0.00,Wunderground v.1.15,2013-02-06 21:32:00,
2013-02-06 16:38:00,22.4,7.4,30.26,NNW,332,1.0,2.0,52,0.00,,,0.00,Wunderground v.1.15,2013-02-06 21:38:00,
2013-02-06 16:47:00,22.4,7.4,30.27,NNW,339,2.0,2.0,52,0.00,,,0.00,Wunderground v.1.15,2013-02-06 21:47:00,
2013-02-06 16:52:00,22.2,7.6,30.27,NNW,337,1.0,2.0,53,0.00,,,0.00,Wunderground v.1.15,2013-02-06 21:52:00,
2013-02-06 17:02:00,22.1,8.0,30.27,NNW,344,2.0,4.0,54,0.00,,,0.00,Wunderground v.1.15,2013-02-06 22:02:00,
2013-02-06 17:07:00,21.9,7.8,30.27,NNW,344,2.0,4.0,54,0.00,,,0.00,Wunderground v.1.15,2013-02-06 22:07:00,
2013-02-06 17:17:00,21.8,8.1,30.27,NNW,340,1.0,1.0,55,0.00,,,0.00,Wunderground v.1.15,2013-02-06 22:17:00,
2013-02-06 17:27:00,21.6,7.9,30.27,NNW,340,0.0,0.0,55,0.00,,,0.00,Wunderground v.1.15,2013-02-06 22:27:00,
2013-02-06 17:32:00,21.4,8.1,30.27,NNW,340,0.0,0.0,56,0.00,,,0.00,Wunderground v.1.15,2013-02-06 22:32:00,
2013-02-06 17:37:00,21.3,8.0,30.27,NNW,337,0.0,0.0,56,0.00,,,0.00,Wunderground v.1.15,2013-02-06 22:37:00,
2013-02-06 17:47:00,21.1,8.2,30.28,NNW,332,0.0,0.0,57,0.00,,,0.00,Wunderground v.1.15,2013-02-06 22:47:00,
2013-02-06 17:57:00,20.6,8.1,30.28,NNW,332,0.0,0.0,58,0.00,,,0.00,Wunderground v.1.15,2013-02-06 22:57:00,
2013-02-06 18:02:00,20.5,8.0,30.28,NNW,332,0.0,0.0,58,0.00,,,0.00,Wunderground v.1.15,2013-02-06 23:02:00,
2013-02-06 18:12:00,20.0,8.0,30.28,NNW,333,0.0,0.0,59,0.00,,,0.00,Wunderground v.1.15,2013-02-06 23:12:00,
2013-02-06 18:22:00,19.7,8.0,30.29,NNW,333,0.0,0.0,60,0.00,,,0.00,Wunderground v.1.15,2013-02-06 23:22:00,
2013-02-06 18:32:00,19.2,7.6,30.29,NNW,333,0.0,0.0,60,0.00,,,0.00,Wunderground v.1.15,2013-02-06 23:32:00,
2013-02-06 18:37:00,19.1,7.8,30.29,NNW,333,0.0,0.0,61,0.00,,,0.00,Wunderground v.1.15,2013-02-06 23:37:00,
2013-02-06 18:47:00,18.8,7.9,30.30,NNW,333,0.0,0.0,62,0.00,,,0.00,Wunderground v.1.15,2013-02-06 23:47:00,
2013-02-06 18:52:00,18.6,7.7,30.30,NNW,333,0.0,0.0,62,0.00,,,0.00,Wunderground v.1.15,2013-02-06 23:52:00,
2013-02-06 19:02:00,18.3,7.8,30.30,NNW,333,0.0,0.0,63,0.00,,,0.00,Wunderground v.1.15,2013-02-07 00:02:00,
2013-02-06 19:07:00,18.1,8.0,30.30,NNW,333,0.0,0.0,64,0.00,,,0.00,Wunderground v.1.15,2013-02-07 00:07:00,
2013-02-06 19:17:00,17.8,7.7,30.31,NNW,333,0.0,0.0,64,0.00,,,0.00,Wunderground v.1.15,2013-02-07 00:17:00,
2013-02-06 19:27:00,17.7,8.3,30.31,NNW,333,0.0,0.0,66,0.00,,,0.00,Wunderground v.1.15,2013-02-07 00:27:00,
2013-02-06 19:38:00,17.8,8.7,30.32,NNW,333,0.0,0.0,67,0.00,,,0.00,Wunderground v.1.15,2013-02-07 00:38:00,
2013-02-06 19:47:00,17.7,8.6,30.33,NNW,332,0.0,0.0,67,0.00,,,0.00,Wunderground v.1.15,2013-02-07 00:47:00,
2013-02-06 19:53:00,17.7,8.6,30.33,NNW,332,0.0,0.0,67,0.00,,,0.00,Wunderground v.1.15,2013-02-07 00:53:00,
2013-02-06 20:02:00,17.5,8.7,30.34,NNW,332,0.0,0.0,68,0.00,,,0.00,Wunderground v.1.15,2013-02-07 01:02:00,
2013-02-06 20:07:00,17.5,9.1,30.34,NNW,332,0.0,0.0,69,0.00,,,0.00,Wunderground v.1.15,2013-02-07 01:07:00,
2013-02-06 20:17:00,18.1,10.0,30.34,NNW,332,0.0,0.0,70,0.00,,,0.00,Wunderground v.1.15,2013-02-07 01:17:00,
2013-02-06 20:22:00,18.6,10.4,30.34,NNW,332,0.0,0.0,70,0.00,,,0.00,Wunderground v.1.15,2013-02-07 01:22:00,
2013-02-06 20:32:00,19.4,10.6,30.34,NNW,333,0.0,0.0,68,0.00,,,0.00,Wunderground v.1.15,2013-02-07 01:32:00,
2013-02-06 20:37:00,19.5,10.6,30.34,NNW,332,0.0,0.0,68,0.00,,,0.00,Wunderground v.1.15,2013-02-07 01:37:00,
2013-02-06 20:47:00,19.4,10.2,30.35,NNW,333,0.0,0.0,67,0.00,,,0.00,Wunderground v.1.15,2013-02-07 01:47:00,
2013-02-06 20:57:00,19.2,10.0,30.35,NNW,332,0.0,0.0,67,0.00,,,0.00,Wunderground v.1.15,2013-02-07 01:57:00,
2013-02-06 21:02:00,19.1,9.9,30.35,NNW,332,0.0,0.0,67,0.00,,,0.00,Wunderground v.1.15,2013-02-07 02:02:00,
2013-02-06 21:07:00,19.2,10.4,30.35,NNW,332,0.0,0.0,68,0.00,,,0.00,Wunderground v.1.15,2013-02-07 02:07:00,
2013-02-06 21:17:00,19.5,10.3,30.35,NNW,333,0.0,0.0,67,0.00,,,0.00,Wunderground v.1.15,2013-02-07 02:17:00,
2013-02-06 21:22:00,19.5,10.3,30.35,NNW,332,0.0,0.0,67,0.00,,,0.00,Wunderground v.1.15,2013-02-07 02:22:00,
2013-02-06 21:32:00,19.4,10.2,30.35,NNW,333,0.0,0.0,67,0.00,,,0.00,Wunderground v.1.15,2013-02-07 02:32:00,
2013-02-06 21:37:00,19.4,10.6,30.35,NNW,332,0.0,0.0,68,0.00,,,0.00,Wunderground v.1.15,2013-02-07 02:37:00,
2013-02-06 21:47:00,19.2,10.4,30.35,NNW,332,0.0,0.0,68,0.00,,,0.00,Wunderground v.1.15,2013-02-07 02:47:00,
2013-02-06 21:52:00,19.1,10.6,30.35,NNW,333,0.0,0.0,69,0.00,,,0.00,Wunderground v.1.15,2013-02-07 02:52:00,
2013-02-06 22:02:00,18.9,10.7,30.35,NNW,332,0.0,0.0,70,0.00,,,0.00,Wunderground v.1.15,2013-02-07 03:02:00,
2013-02-06 22:12:00,18.9,11.0,30.35,NNW,332,0.0,0.0,71,0.00,,,0.00,Wunderground v.1.15,2013-02-07 03:12:00,
2013-02-06 22:22:00,18.9,11.0,30.35,NNW,332,0.0,0.0,71,0.00,,,0.00,Wunderground v.1.15,2013-02-07 03:22:00,
2013-02-06 22:32:00,19.1,11.2,30.35,NNW,332,0.0,0.0,71,0.00,,,0.00,Wunderground v.1.15,2013-02-07 03:32:00,
2013-02-06 22:37:00,19.1,11.2,30.35,NNW,333,0.0,0.0,71,0.00,,,0.00,Wunderground v.1.15,2013-02-07 03:37:00,
2013-02-06 22:47:00,19.2,11.6,30.35,NNW,332,0.0,0.0,72,0.00,,,0.00,Wunderground v.1.15,2013-02-07 03:47:00,
2013-02-06 22:53:00,19.4,11.5,30.35,NNW,332,0.0,0.0,71,0.00,,,0.00,Wunderground v.1.15,2013-02-07 03:53:00,
2013-02-06 23:02:00,19.7,11.8,30.36,NNW,333,0.0,0.0,71,0.00,,,0.00,Wunderground v.1.15,2013-02-07 04:02:00,
2013-02-06 23:08:00,19.7,12.1,30.36,NNW,332,0.0,0.0,72,0.00,,,0.00,Wunderground v.1.15,2013-02-07 04:08:00,
2013-02-06 23:17:00,19.9,12.0,30.36,NNW,333,0.0,0.0,71,0.00,,,0.00,Wunderground v.1.15,2013-02-07 04:17:00,
2013-02-06 23:22:00,19.9,12.0,30.36,NNW,332,0.0,0.0,71,0.00,,,0.00,Wunderground v.1.15,2013-02-07 04:22:00,
2013-02-06 23:32:00,20.0,12.1,30.36,NNW,333,0.0,0.0,71,0.00,,,0.00,Wunderground v.1.15,2013-02-07 04:32:00,
2013-02-06 23:42:00,20.0,11.5,30.36,NNW,333,0.0,0.0,69,0.00,,,0.00,Wunderground v.1.15,2013-02-07 04:42:00,
2013-02-06 23:57:00,19.7,11.2,30.35,NNW,333,0.0,0.0,69,0.00,,,0.00,Wunderground v.1.15,2013-02-07 04:57:00,